Terminal Aerodrome Forecast
Issued by NWS

Home | Current Version | Previous Version | Text Only | Print | Product List | Glossary Off
Versions: 1 2 3 4 5 6 7 8 9 10 11 12

136
FTUS43 KFGF 231132
TAFBJI
TAF
KBJI 231132Z 2312/2412 21005KT P6SM SCT200
     FM231800 26008KT P6SM BKN250
     FM232000 34005KT P6SM SCT200=

USA.gov is the U.S. government's official web portal to all federal, state and local government web resources and services.